createdAt,value
2023-07-30T00:02:10.777Z,16.97
2023-07-30T00:05:37.097Z,17.00
2023-07-30T00:09:33.379Z,16.98
2023-07-30T00:12:58.352Z,17.03
2023-07-30T00:16:35.842Z,17.04
2023-07-30T00:20:13.913Z,16.97
2023-07-30T00:23:52.559Z,16.96
2023-07-30T00:27:47.747Z,17.02
2023-07-30T00:31:13.898Z,17.01
2023-07-30T00:34:51.494Z,17.08
2023-07-30T00:38:29.096Z,17.18
2023-07-30T00:42:26.146Z,17.26
2023-07-30T00:45:51.835Z,17.32
2023-07-30T00:49:29.575Z,17.38
2023-07-30T00:53:09.987Z,17.41
2023-07-30T00:56:54.302Z,17.41
2023-07-30T01:00:23.473Z,17.36
2023-07-30T01:04:02.238Z,17.34
2023-07-30T01:07:37.724Z,17.31
2023-07-30T01:11:16.077Z,17.28
2023-07-30T01:14:55.888Z,17.28
2023-07-30T01:18:30.856Z,17.26
2023-07-30T01:22:08.435Z,17.21
2023-07-30T01:25:48.745Z,17.15
2023-07-30T01:29:29.145Z,17.07
2023-07-30T01:33:21.839Z,17.00
2023-07-30T01:36:49.021Z,16.98
2023-07-30T01:40:26.832Z,17.01
2023-07-30T01:44:03.081Z,16.96
2023-07-30T01:47:40.793Z,16.91
2023-07-30T01:51:18.509Z,16.83
2023-07-30T01:55:15.302Z,16.79
2023-07-30T01:58:40.614Z,16.73
2023-07-30T02:02:37.183Z,16.70
2023-07-30T02:06:03.901Z,16.66
2023-07-30T02:09:41.446Z,16.59
2023-07-30T02:13:20.354Z,16.54
2023-07-30T02:16:56.750Z,16.48
2023-07-30T02:20:34.500Z,16.39
2023-07-30T02:24:12.912Z,16.29
2023-07-30T02:27:49.682Z,16.18
2023-07-30T02:31:28.740Z,16.12
2023-07-30T02:35:05.753Z,16.09
2023-07-30T02:38:43.183Z,16.02
2023-07-30T02:42:21.841Z,15.93
2023-07-30T02:46:00.291Z,15.88
2023-07-30T02:49:55.864Z,15.85
2023-07-30T02:53:20.619Z,15.79
2023-07-30T02:56:59.480Z,15.75
2023-07-30T03:00:41.525Z,15.71
2023-07-30T03:04:14.150Z,15.71
2023-07-30T03:08:11.252Z,15.70
2023-07-30T03:11:36.926Z,15.66
2023-07-30T03:15:14.635Z,15.62
2023-07-30T03:18:51.989Z,15.62
2023-07-30T03:22:29.680Z,15.66
2023-07-30T03:26:07.268Z,15.69
2023-07-30T03:29:45.514Z,15.73
2023-07-30T03:33:46.483Z,15.76
2023-07-30T03:37:12.475Z,15.79
2023-07-30T03:40:50.641Z,15.85
2023-07-30T03:44:28.034Z,15.79
2023-07-30T03:48:05.629Z,15.69
2023-07-30T03:51:43.082Z,15.46
2023-07-30T03:55:20.628Z,15.42
2023-07-30T03:58:58.312Z,15.35
2023-07-30T04:02:36.095Z,15.34
2023-07-30T04:06:13.865Z,15.36
2023-07-30T04:09:51.357Z,15.47
2023-07-30T04:13:29.641Z,15.62
2023-07-30T04:17:25.649Z,15.69
2023-07-30T04:20:51.546Z,15.72
2023-07-30T04:24:28.314Z,15.87
2023-07-30T04:28:24.981Z,16.06
2023-07-30T04:31:50.080Z,16.16
2023-07-30T04:35:46.740Z,16.26
2023-07-30T04:39:13.567Z,16.26
2023-07-30T04:42:49.524Z,16.27
2023-07-30T04:46:45.925Z,16.34
2023-07-30T04:50:10.879Z,16.48
2023-07-30T04:53:48.544Z,16.53
2023-07-30T04:57:26.940Z,16.60
2023-07-30T05:01:03.829Z,16.67
2023-07-30T05:05:00.655Z,16.75
2023-07-30T05:08:25.381Z,16.83
2023-07-30T05:12:03.324Z,16.92
2023-07-30T05:15:59.628Z,17.03
2023-07-30T05:19:24.622Z,17.11
2023-07-30T05:23:03.458Z,17.18
2023-07-30T05:26:39.869Z,17.26
2023-07-30T05:30:36.352Z,17.34
2023-07-30T05:34:01.625Z,17.43
2023-07-30T05:37:57.989Z,17.54
2023-07-30T05:41:22.948Z,17.67
2023-07-30T05:45:00.940Z,17.79
2023-07-30T05:48:57.729Z,17.89
2023-07-30T05:52:41.936Z,18.02
2023-07-30T05:56:07.136Z,18.10
2023-07-30T05:59:44.785Z,18.20
2023-07-30T06:03:22.649Z,18.27
2023-07-30T06:07:05.999Z,18.35
2023-07-30T06:10:39.310Z,18.43
2023-07-30T06:14:15.594Z,18.49
2023-07-30T06:17:53.432Z,18.54
2023-07-30T06:21:30.714Z,18.68
2023-07-30T06:25:08.607Z,18.77
2023-07-30T06:28:46.073Z,18.88
2023-07-30T06:32:24.930Z,19.00
2023-07-30T06:36:01.614Z,19.05
2023-07-30T06:39:57.963Z,19.12
2023-07-30T06:43:22.827Z,19.26
2023-07-30T06:47:01.060Z,19.37
2023-07-30T06:50:38.328Z,19.47
2023-07-30T06:54:35.936Z,19.56
2023-07-30T06:58:02.040Z,19.66
2023-07-30T07:01:39.727Z,19.78
2023-07-30T07:05:17.199Z,19.88
2023-07-30T07:08:55.159Z,19.95
2023-07-30T07:12:51.393Z,20.02
2023-07-30T07:16:16.470Z,20.04
2023-07-30T07:19:54.149Z,20.11
2023-07-30T07:23:50.699Z,20.16
2023-07-30T07:27:15.590Z,20.22
2023-07-30T07:30:53.189Z,20.27
2023-07-30T07:34:30.882Z,20.32
2023-07-30T07:38:08.812Z,20.38
2023-07-30T07:41:46.225Z,20.48
2023-07-30T07:45:42.850Z,20.57
2023-07-30T07:49:09.749Z,20.66
2023-07-30T07:52:45.006Z,20.67
2023-07-30T07:56:22.848Z,20.68
2023-07-30T08:00:00.531Z,20.73
2023-07-30T08:03:38.264Z,20.79
2023-07-30T08:07:16.026Z,20.90
2023-07-30T08:10:54.273Z,20.97
2023-07-30T08:14:32.393Z,21.02
2023-07-30T08:18:09.622Z,21.13
2023-07-30T08:21:46.714Z,21.28
2023-07-30T08:25:24.275Z,21.34
2023-07-30T08:29:01.991Z,21.42
2023-07-30T08:32:58.925Z,21.50
2023-07-30T08:36:24.227Z,21.64
2023-07-30T08:40:01.635Z,21.68
2023-07-30T08:43:39.563Z,21.76
2023-07-30T08:47:36.422Z,21.84
2023-07-30T08:51:22.352Z,21.91
2023-07-30T08:54:51.329Z,21.99
2023-07-30T08:58:28.197Z,22.09
2023-07-30T09:02:34.013Z,22.23
2023-07-30T09:05:59.183Z,22.42
2023-07-30T09:09:56.084Z,22.58
2023-07-30T09:13:24.756Z,22.74
2023-07-30T09:16:59.562Z,22.82
2023-07-30T09:20:40.712Z,22.92
2023-07-30T09:24:22.727Z,22.99
2023-07-30T09:28:10.769Z,23.15
2023-07-30T09:31:56.111Z,23.25
2023-07-30T09:35:40.146Z,23.43
2023-07-30T09:39:05.080Z,23.68
2023-07-30T09:42:49.218Z,23.79
2023-07-30T09:46:20.374Z,23.78
2023-07-30T09:49:58.025Z,23.76
2023-07-30T09:53:36.256Z,23.81
2023-07-30T09:57:13.240Z,23.89
2023-07-30T10:00:51.896Z,23.88
2023-07-30T10:04:50.537Z,23.81
2023-07-30T10:08:22.772Z,23.66
2023-07-30T10:12:25.166Z,23.70
2023-07-30T10:16:12.145Z,23.81
2023-07-30T10:19:37.349Z,23.82
2023-07-30T10:23:33.653Z,23.82
2023-07-30T10:27:06.894Z,24.00
2023-07-30T10:31:03.851Z,24.20
2023-07-30T10:34:47.953Z,24.33
2023-07-30T10:38:31.787Z,24.34
2023-07-30T10:42:01.831Z,24.40
2023-07-30T10:45:34.812Z,24.48
2023-07-30T10:49:13.306Z,24.58
2023-07-30T10:52:49.884Z,24.66
2023-07-30T10:56:46.819Z,24.67
2023-07-30T11:00:12.990Z,24.73
2023-07-30T11:04:15.772Z,24.76
2023-07-30T11:07:50.490Z,24.85
2023-07-30T11:11:42.979Z,24.88
2023-07-30T11:15:08.264Z,24.99
2023-07-30T11:18:47.693Z,25.17
2023-07-30T11:22:34.240Z,25.37
2023-07-30T11:26:20.478Z,25.52
2023-07-30T11:29:55.651Z,25.72
2023-07-30T11:33:23.610Z,25.80
2023-07-30T11:37:01.124Z,25.79
2023-07-30T11:40:58.195Z,25.84
2023-07-30T11:44:41.250Z,25.75
2023-07-30T11:48:26.325Z,25.67
2023-07-30T11:51:52.555Z,25.57
2023-07-30T11:55:39.373Z,25.47
2023-07-30T11:59:08.601Z,25.42
2023-07-30T12:02:44.465Z,25.44
2023-07-30T12:06:43.617Z,25.53
2023-07-30T12:10:27.358Z,25.60
2023-07-30T12:13:52.623Z,25.63
2023-07-30T12:17:30.145Z,25.50
2023-07-30T12:21:26.270Z,25.43
2023-07-30T12:24:50.951Z,25.31
2023-07-30T12:28:28.671Z,25.13
2023-07-30T12:32:28.491Z,25.02
2023-07-30T12:35:54.303Z,24.89
2023-07-30T12:39:30.855Z,24.78
2023-07-30T12:43:10.219Z,24.72
2023-07-30T12:46:46.105Z,24.71
2023-07-30T12:50:42.854Z,24.66
2023-07-30T12:54:26.300Z,24.71
2023-07-30T12:57:51.238Z,24.83
2023-07-30T13:01:29.179Z,24.90
2023-07-30T13:05:07.016Z,25.03
2023-07-30T13:08:44.297Z,25.17
2023-07-30T13:12:41.075Z,25.33
2023-07-30T13:16:24.763Z,25.47
2023-07-30T13:20:08.854Z,25.49
2023-07-30T13:23:34.045Z,25.47
2023-07-30T13:27:11.929Z,25.52
2023-07-30T13:30:52.012Z,25.56
2023-07-30T13:34:26.981Z,25.57
2023-07-30T13:38:25.829Z,25.68
2023-07-30T13:42:09.948Z,25.71
2023-07-30T13:45:35.073Z,25.90
2023-07-30T13:49:31.584Z,26.11
2023-07-30T13:53:15.869Z,26.51
2023-07-30T13:57:03.871Z,26.93
2023-07-30T14:00:48.115Z,27.18
2023-07-30T14:04:12.814Z,27.29
2023-07-30T14:08:09.437Z,27.45
2023-07-30T14:11:34.112Z,27.21
2023-07-30T14:15:32.076Z,26.94
2023-07-30T14:18:57.276Z,26.92
2023-07-30T14:22:54.581Z,26.84
2023-07-30T14:26:19.750Z,26.44
2023-07-30T14:29:57.577Z,26.04
2023-07-30T14:33:35.341Z,25.68
2023-07-30T14:37:32.235Z,25.48
2023-07-30T14:40:57.444Z,25.28
2023-07-30T14:44:35.990Z,25.09
2023-07-30T14:48:12.884Z,24.83
2023-07-30T14:52:09.484Z,24.63
2023-07-30T14:55:34.544Z,24.59
2023-07-30T14:59:12.203Z,24.45
2023-07-30T15:02:50.290Z,24.39
2023-07-30T15:06:32.660Z,24.45
2023-07-30T15:10:05.934Z,24.56
2023-07-30T15:14:01.823Z,24.56
2023-07-30T15:17:26.861Z,24.51
2023-07-30T15:21:04.877Z,24.51
2023-07-30T15:25:01.566Z,24.48
2023-07-30T15:28:26.886Z,24.37
2023-07-30T15:32:04.988Z,24.20
2023-07-30T15:35:41.990Z,24.17
2023-07-30T15:39:38.515Z,24.07
2023-07-30T15:43:04.640Z,23.91
2023-07-30T15:46:41.401Z,23.72
2023-07-30T15:50:18.877Z,23.57
2023-07-30T15:53:56.704Z,23.47
2023-07-30T15:57:34.292Z,23.59
2023-07-30T16:01:31.403Z,23.95
2023-07-30T16:04:56.292Z,23.86
2023-07-30T16:08:34.890Z,23.54
2023-07-30T16:12:13.712Z,23.37
2023-07-30T16:15:49.150Z,23.27
2023-07-30T16:19:26.972Z,23.10
2023-07-30T16:23:05.366Z,22.94
2023-07-30T16:26:42.892Z,22.81
2023-07-30T16:30:19.856Z,22.69
2023-07-30T16:33:57.580Z,22.61
2023-07-30T16:37:35.294Z,22.52
2023-07-30T16:41:12.917Z,22.46
2023-07-30T16:44:52.348Z,22.30
2023-07-30T16:48:28.259Z,22.19
2023-07-30T16:52:24.854Z,22.11
2023-07-30T16:55:49.754Z,21.89
2023-07-30T16:59:27.361Z,21.26
2023-07-30T17:03:08.121Z,19.92
2023-07-30T17:06:42.847Z,18.77
2023-07-30T17:10:40.568Z,17.36
2023-07-30T17:14:05.487Z,16.37
2023-07-30T17:18:02.579Z,16.07
2023-07-30T17:21:27.717Z,15.93
2023-07-30T17:25:05.850Z,15.76
2023-07-30T17:28:42.801Z,15.72
2023-07-30T17:32:20.755Z,15.79
2023-07-30T17:36:03.010Z,15.85
2023-07-30T17:39:37.100Z,16.08
2023-07-30T17:43:14.738Z,16.25
2023-07-30T17:46:51.243Z,16.24
2023-07-30T17:50:32.277Z,16.39
2023-07-30T17:54:06.681Z,16.50
2023-07-30T17:57:44.206Z,16.60
2023-07-30T18:01:40.876Z,16.73
2023-07-30T18:05:06.171Z,16.82
2023-07-30T18:09:03.679Z,16.80
2023-07-30T18:12:28.655Z,16.89
2023-07-30T18:16:24.982Z,16.90
2023-07-30T18:19:49.959Z,16.90
2023-07-30T18:23:27.756Z,16.94
2023-07-30T18:27:05.700Z,16.91
2023-07-30T18:30:43.060Z,16.78
2023-07-30T18:34:39.559Z,16.72
2023-07-30T18:38:05.224Z,16.66
2023-07-30T18:42:01.131Z,16.64
2023-07-30T18:45:48.079Z,16.60
2023-07-30T18:49:32.603Z,16.55
2023-07-30T18:52:57.557Z,16.52
2023-07-30T18:56:35.044Z,16.53
2023-07-30T19:00:13.496Z,16.49
2023-07-30T19:04:09.458Z,16.47
2023-07-30T19:07:53.574Z,16.47
2023-07-30T19:11:37.565Z,16.47
2023-07-30T19:15:22.537Z,16.43
2023-07-30T19:18:47.187Z,16.10
2023-07-30T19:22:24.982Z,15.83
2023-07-30T19:26:02.709Z,15.56
2023-07-30T19:29:40.188Z,15.55
2023-07-30T19:33:39.478Z,15.55
2023-07-30T19:37:04.751Z,15.49
2023-07-30T19:40:41.934Z,15.50
2023-07-30T19:44:38.983Z,15.36
2023-07-30T19:48:23.858Z,15.18
2023-07-30T19:52:08.467Z,15.16
2023-07-30T19:55:52.042Z,15.18
2023-07-30T19:59:35.675Z,15.27
2023-07-30T20:03:19.908Z,15.39
2023-07-30T20:06:45.192Z,15.48
2023-07-30T20:10:22.578Z,15.55
2023-07-30T20:14:00.396Z,15.51
2023-07-30T20:17:39.977Z,15.52
2023-07-30T20:21:34.579Z,15.55
2023-07-30T20:24:59.329Z,15.53
2023-07-30T20:28:36.991Z,15.58
2023-07-30T20:32:33.524Z,15.66
2023-07-30T20:35:58.450Z,15.71
2023-07-30T20:39:56.707Z,15.76
2023-07-30T20:43:42.292Z,15.82
2023-07-30T20:47:25.893Z,15.88
2023-07-30T20:51:10.677Z,15.85
2023-07-30T20:54:55.679Z,15.85
2023-07-30T20:58:22.604Z,15.82
2023-07-30T21:02:17.225Z,15.76
2023-07-30T21:05:42.703Z,15.63
2023-07-30T21:09:39.130Z,15.61
2023-07-30T21:13:23.015Z,15.55
2023-07-30T21:16:47.831Z,15.49
2023-07-30T21:20:25.668Z,15.43
2023-07-30T21:24:21.982Z,15.44
2023-07-30T21:28:06.888Z,15.50
2023-07-30T21:31:50.488Z,15.62
2023-07-30T21:35:34.130Z,15.75
2023-07-30T21:38:59.232Z,15.84
2023-07-30T21:42:36.906Z,15.88
2023-07-30T21:46:33.583Z,15.96
2023-07-30T21:50:17.366Z,15.99
2023-07-30T21:54:01.489Z,16.04
2023-07-30T21:57:46.867Z,16.07
2023-07-30T22:01:30.627Z,16.13
2023-07-30T22:04:55.779Z,16.15
2023-07-30T22:08:52.122Z,16.16
2023-07-30T22:12:35.929Z,16.21
2023-07-30T22:16:20.171Z,16.19
2023-07-30T22:19:44.815Z,16.11
2023-07-30T22:23:22.440Z,16.14
2023-07-30T22:27:19.166Z,16.12
2023-07-30T22:31:02.943Z,16.07
2023-07-30T22:34:46.408Z,16.02
2023-07-30T22:38:11.690Z,15.92
2023-07-30T22:41:49.146Z,15.76
2023-07-30T22:45:26.771Z,15.65
2023-07-30T22:49:23.579Z,15.61
2023-07-30T22:52:48.362Z,15.67
2023-07-30T22:56:26.105Z,15.69
2023-07-30T23:00:05.895Z,15.70
2023-07-30T23:03:42.470Z,15.71
2023-07-30T23:07:38.068Z,15.70
2023-07-30T23:11:21.483Z,15.74
2023-07-30T23:14:46.658Z,15.81
2023-07-30T23:18:24.851Z,15.81
2023-07-30T23:22:04.875Z,15.86
2023-07-30T23:25:39.603Z,15.93
2023-07-30T23:29:17.235Z,15.98
2023-07-30T23:32:55.179Z,16.03
2023-07-30T23:36:32.627Z,16.09
2023-07-30T23:40:29.246Z,16.15
2023-07-30T23:44:12.912Z,16.19
2023-07-30T23:47:37.744Z,16.23
2023-07-30T23:51:15.590Z,16.25
2023-07-30T23:55:11.976Z,16.25
2023-07-30T23:58:36.816Z,16.23
